createdAt,value
2023-04-04T00:00:00.996Z,6.30
2023-04-04T00:05:03.836Z,6.20
2023-04-04T00:10:06.492Z,6.10
2023-04-04T00:15:09.088Z,6.10
2023-04-04T00:20:11.586Z,6.00
2023-04-04T00:25:13.687Z,5.80
2023-04-04T00:30:15.921Z,5.50
2023-04-04T00:35:18.020Z,5.40
2023-04-04T00:40:20.090Z,5.40
2023-04-04T00:45:22.669Z,5.30
2023-04-04T00:50:25.020Z,5.30
2023-04-04T00:55:27.429Z,5.30
2023-04-04T01:00:29.852Z,5.30
2023-04-04T01:05:32.594Z,5.30
2023-04-04T01:10:35.640Z,5.40
2023-04-04T01:15:38.032Z,5.50
2023-04-04T01:21:02.608Z,5.50
2023-04-04T01:26:05.909Z,5.50
2023-04-04T01:31:14.130Z,5.40
2023-04-04T01:36:31.919Z,5.10
2023-04-04T01:41:37.745Z,5.10
2023-04-04T01:46:40.273Z,5.10
2023-04-04T01:51:44.922Z,5.10
2023-04-04T01:56:47.241Z,4.90
2023-04-04T02:01:50.002Z,4.80
2023-04-04T02:06:52.759Z,4.70
2023-04-04T02:11:55.080Z,4.70
2023-04-04T02:16:57.316Z,4.80
2023-04-04T02:21:59.567Z,4.80
2023-04-04T02:27:01.710Z,4.80
2023-04-04T02:32:03.837Z,4.80
2023-04-04T02:37:06.712Z,4.70
2023-04-04T02:42:08.823Z,4.50
2023-04-04T02:47:11.118Z,4.20
2023-04-04T02:52:13.404Z,4.20
2023-04-04T02:57:19.360Z,4.20
2023-04-04T03:02:23.888Z,4.00
2023-04-04T03:07:26.716Z,3.90
2023-04-04T03:12:29.366Z,4.00
2023-04-04T03:17:32.305Z,4.00
2023-04-04T03:22:35.920Z,4.00
2023-04-04T03:27:39.858Z,3.90
2023-04-04T03:32:42.754Z,3.80
2023-04-04T03:37:44.975Z,3.90
2023-04-04T03:42:47.309Z,3.90
2023-04-04T03:47:54.505Z,3.90
2023-04-04T03:52:58.478Z,3.80
2023-04-04T03:58:00.755Z,3.80
2023-04-04T04:03:03.136Z,3.80
2023-04-04T04:08:06.129Z,3.60
2023-04-04T04:13:08.600Z,3.70
2023-04-04T04:18:11.095Z,3.70
2023-04-04T04:23:13.389Z,3.70
2023-04-04T04:28:16.014Z,3.70
2023-04-04T04:33:19.366Z,3.60
2023-04-04T04:38:32.239Z,3.60
2023-04-04T04:43:36.915Z,3.50
2023-04-04T04:48:39.426Z,3.50
2023-04-04T04:53:42.750Z,3.40
2023-04-04T04:58:47.653Z,3.10
2023-04-04T05:03:56.781Z,3.00
2023-04-04T05:09:07.160Z,2.90
2023-04-04T05:14:12.719Z,2.90
2023-04-04T05:19:22.947Z,3.00
2023-04-04T05:24:30.165Z,3.20
2023-04-04T05:29:34.051Z,3.20
2023-04-04T05:34:38.099Z,3.20
2023-04-04T05:39:43.998Z,3.10
2023-04-04T05:44:46.379Z,3.10
2023-04-04T05:49:48.839Z,3.10
2023-04-04T05:54:51.353Z,3.00
2023-04-04T06:00:01.480Z,3.00
2023-04-04T06:05:06.524Z,2.90
2023-04-04T06:10:11.657Z,3.00
2023-04-04T06:15:13.901Z,3.00
2023-04-04T06:20:19.267Z,2.90
2023-04-04T06:25:22.372Z,3.00
2023-04-04T06:30:24.739Z,3.00
2023-04-04T06:35:28.118Z,3.10
2023-04-04T06:40:35.409Z,3.10
2023-04-04T06:45:38.268Z,3.20
2023-04-04T06:50:41.032Z,3.20
2023-04-04T06:55:48.149Z,3.30
2023-04-04T07:00:50.384Z,3.40
2023-04-04T07:05:52.894Z,3.50
2023-04-04T07:10:55.136Z,3.60
2023-04-04T07:15:57.262Z,3.70
2023-04-04T07:20:59.622Z,3.80
2023-04-04T07:26:01.763Z,3.90
2023-04-04T07:31:03.827Z,4.10
2023-04-04T07:36:05.990Z,4.20
2023-04-04T07:41:08.710Z,4.20
2023-04-04T07:46:11.855Z,4.30
2023-04-04T07:51:14.231Z,4.50
2023-04-04T07:56:16.292Z,4.60
2023-04-04T08:01:18.486Z,4.90
2023-04-04T08:06:20.808Z,5.10
2023-04-04T08:11:23.184Z,5.30
2023-04-04T08:16:25.478Z,5.60
2023-04-04T08:21:27.726Z,5.80
2023-04-04T08:26:30.663Z,6.00
2023-04-04T08:31:33.162Z,6.20
2023-04-04T08:36:36.131Z,6.40
2023-04-04T08:41:39.836Z,6.60
2023-04-04T08:46:42.272Z,6.80
2023-04-04T08:51:45.921Z,7.10
2023-04-04T08:56:49.802Z,7.20
2023-04-04T09:02:05.696Z,7.40
2023-04-04T09:07:09.319Z,7.60
2023-04-04T09:12:13.464Z,7.80
2023-04-04T09:17:16.753Z,8.00
2023-04-04T09:22:19.484Z,8.20
2023-04-04T09:27:21.803Z,8.10
2023-04-04T09:32:26.402Z,8.40
2023-04-04T09:37:28.981Z,8.60
2023-04-04T09:42:31.947Z,8.80
2023-04-04T09:47:34.122Z,9.00
2023-04-04T09:52:36.226Z,9.20
2023-04-04T09:57:39.459Z,9.40
2023-04-04T10:02:47.824Z,9.40
2023-04-04T10:07:50.149Z,9.60
2023-04-04T10:12:53.032Z,9.70
2023-04-04T10:17:55.590Z,9.90
2023-04-04T10:22:58.728Z,10.20
2023-04-04T10:28:01.787Z,10.40
2023-04-04T10:33:12.735Z,10.60
2023-04-04T10:38:16.558Z,10.80
2023-04-04T10:43:24.858Z,10.90
2023-04-04T10:48:28.189Z,11.10
2023-04-04T10:53:30.864Z,11.70
2023-04-04T10:58:39.044Z,11.90
2023-04-04T11:04:20.097Z,11.90
2023-04-04T11:10:01.237Z,11.80
2023-04-04T11:15:09.886Z,11.50
2023-04-04T11:20:16.823Z,11.40
2023-04-04T11:25:26.126Z,11.50
2023-04-04T11:30:28.348Z,11.90
2023-04-04T11:35:30.464Z,12.20
2023-04-04T11:40:41.797Z,12.30
2023-04-04T11:45:45.108Z,12.50
2023-04-04T11:50:50.115Z,12.80
2023-04-04T11:55:53.616Z,12.90
2023-04-04T12:00:55.855Z,13.30
2023-04-04T12:05:58.049Z,13.20
2023-04-04T12:11:05.175Z,13.50
2023-04-04T12:16:09.141Z,13.80
2023-04-04T12:21:11.455Z,13.90
2023-04-04T12:26:14.073Z,14.20
2023-04-04T12:31:16.927Z,13.70
2023-04-04T12:36:19.537Z,14.30
2023-04-04T12:41:21.717Z,14.60
2023-04-04T12:46:28.016Z,14.10
2023-04-04T12:51:34.007Z,14.20
2023-04-04T12:56:37.242Z,14.30
2023-04-04T13:01:39.397Z,14.20
2023-04-04T13:06:44.368Z,14.20
2023-04-04T13:12:08.411Z,14.20
2023-04-04T13:17:10.984Z,14.10
2023-04-04T13:22:13.114Z,14.10
2023-04-04T13:27:15.277Z,13.60
2023-04-04T13:32:17.487Z,14.10
2023-04-04T13:37:20.565Z,14.40
2023-04-04T13:42:26.936Z,14.50
2023-04-04T13:47:29.072Z,14.90
2023-04-04T13:52:31.202Z,14.70
2023-04-04T13:57:33.430Z,14.80
2023-04-04T14:02:35.654Z,14.80
2023-04-04T14:07:38.477Z,15.00
2023-04-04T14:12:40.803Z,15.50
2023-04-04T14:17:43.542Z,15.50
2023-04-04T14:22:46.223Z,15.30
2023-04-04T14:27:48.460Z,15.40
2023-04-04T14:32:51.279Z,15.60
2023-04-04T14:37:54.571Z,15.30
2023-04-04T14:42:57.404Z,15.10
2023-04-04T14:47:59.565Z,14.60
2023-04-04T14:53:01.655Z,14.50
2023-04-04T14:58:03.736Z,14.80
2023-04-04T15:03:07.295Z,14.60
2023-04-04T15:08:09.531Z,14.70
2023-04-04T15:13:11.711Z,14.60
2023-04-04T15:18:13.829Z,14.80
2023-04-04T15:23:15.901Z,14.90
2023-04-04T15:28:18.022Z,14.70
2023-04-04T15:33:20.136Z,15.20
2023-04-04T15:38:22.550Z,15.00
2023-04-04T15:43:24.851Z,14.60
2023-04-04T15:48:26.910Z,14.90
2023-04-04T15:53:33.364Z,14.90
2023-04-04T15:58:35.505Z,15.00
2023-04-04T16:03:37.822Z,15.00
2023-04-04T16:08:42.385Z,15.00
2023-04-04T16:13:44.952Z,15.00
2023-04-04T16:18:47.696Z,14.60
2023-04-04T16:23:49.772Z,14.30
2023-04-04T16:28:51.824Z,13.90
2023-04-04T16:33:53.899Z,14.10
2023-04-04T16:38:57.875Z,14.40
2023-04-04T16:44:00.452Z,14.60
2023-04-04T16:49:02.552Z,14.30
2023-04-04T16:54:04.702Z,14.40
2023-04-04T16:59:07.055Z,14.40
2023-04-04T17:04:09.233Z,14.50
2023-04-04T17:09:11.377Z,14.30
2023-04-04T17:14:14.251Z,14.20
2023-04-04T17:19:16.518Z,13.70
2023-04-04T17:24:19.488Z,13.90
2023-04-04T17:29:26.696Z,13.60
2023-04-04T17:34:29.530Z,13.40
2023-04-04T17:39:31.996Z,13.50
2023-04-04T17:44:34.235Z,13.50
2023-04-04T17:49:37.455Z,13.30
2023-04-04T17:54:40.009Z,13.30
2023-04-04T17:59:42.082Z,13.10
2023-04-04T18:04:44.282Z,12.60
2023-04-04T18:09:46.782Z,12.30
2023-04-04T18:14:49.028Z,12.20
2023-04-04T18:19:51.418Z,12.00
2023-04-04T18:24:53.552Z,11.70
2023-04-04T18:29:55.767Z,11.50
2023-04-04T18:34:57.860Z,11.40
2023-04-04T18:39:59.959Z,11.20
2023-04-04T18:45:02.836Z,11.00
2023-04-04T18:50:06.624Z,10.80
2023-04-04T18:55:09.404Z,10.70
2023-04-04T19:00:12.390Z,10.50
2023-04-04T19:05:20.705Z,10.40
2023-04-04T19:10:22.857Z,10.30
2023-04-04T19:15:25.063Z,10.10
2023-04-04T19:20:27.348Z,10.00
2023-04-04T19:25:29.490Z,9.90
2023-04-04T19:30:45.165Z,9.90
2023-04-04T19:35:53.714Z,9.80
2023-04-04T19:41:01.793Z,9.80
2023-04-04T19:46:09.609Z,9.80
2023-04-04T19:51:39.024Z,9.70
2023-04-04T19:56:44.011Z,9.60
2023-04-04T20:01:59.673Z,9.50
2023-04-04T20:07:02.472Z,9.40
2023-04-04T20:12:07.206Z,9.40
2023-04-04T20:17:09.785Z,9.40
2023-04-04T20:22:12.078Z,9.50
2023-04-04T20:27:23.739Z,9.50
2023-04-04T20:32:26.016Z,9.40
2023-04-04T20:37:29.060Z,9.30
2023-04-04T20:42:31.469Z,9.20
2023-04-04T20:47:47.360Z,9.10
2023-04-04T20:52:52.965Z,9.10
2023-04-04T20:57:59.581Z,9.10
2023-04-04T21:03:08.552Z,9.00
2023-04-04T21:08:37.614Z,9.00
2023-04-04T21:13:41.671Z,8.90
2023-04-04T21:18:44.617Z,8.70
2023-04-04T21:23:59.761Z,8.60
2023-04-04T21:29:04.626Z,8.50
2023-04-04T21:34:18.204Z,8.50
2023-04-04T21:39:31.689Z,8.50
2023-04-04T21:44:33.853Z,8.40
2023-04-04T21:49:35.966Z,8.20
2023-04-04T21:54:38.027Z,8.00
2023-04-04T21:59:40.060Z,7.80
2023-04-04T22:04:42.236Z,7.70
2023-04-04T22:09:44.372Z,7.70
2023-04-04T22:14:50.606Z,7.80
2023-04-04T22:19:58.897Z,7.90
2023-04-04T22:25:05.832Z,7.80
2023-04-04T22:30:08.463Z,7.70
2023-04-04T22:35:12.362Z,7.50
2023-04-04T22:40:14.393Z,7.30
2023-04-04T22:45:16.912Z,7.10
2023-04-04T22:50:24.928Z,6.90
2023-04-04T22:55:28.030Z,6.70
2023-04-04T23:00:30.161Z,6.70
2023-04-04T23:05:32.528Z,6.70
2023-04-04T23:10:34.777Z,6.70
2023-04-04T23:15:37.915Z,6.80
2023-04-04T23:20:41.182Z,6.80
2023-04-04T23:25:43.427Z,6.80
2023-04-04T23:30:45.606Z,6.70
2023-04-04T23:35:48.036Z,6.60
2023-04-04T23:40:50.132Z,6.40
2023-04-04T23:45:52.991Z,6.40
2023-04-04T23:50:56.581Z,6.50
2023-04-04T23:55:58.629Z,6.50
